Time;durP1;ratioP1;P1;durP2;ratioP2;P2;SDS_P1;SDS_P2;PMS_P1;PMS_P2;Temp;Humidity;BMP_temperature;BMP_pressure;BME280_temperature;BME280_humidity;BME280_pressure;Samples;Min_cycle;Max_cycle;Signal;HPM_P1;HPM_P2
2023/03/29 00:02:08;;;;;;;0.82;0.82;;;4.90;99.90;;;;;;4965357;28;20051;-86
2023/03/29 00:04:34;;;;;;;0.60;0.60;;;5.00;99.90;;;;;;4954672;28;20054;-87
2023/03/29 00:07:03;;;;;;;0.60;0.60;;;4.90;99.90;;;;;;4969324;28;20046;-83
2023/03/29 00:09:32;;;;;;;0.50;0.50;;;4.90;99.90;;;;;;4978955;28;20043;-86
2023/03/29 00:11:59;;;;;;;1.10;1.10;;;5.30;99.90;;;;;;4966745;28;20318;-85
2023/03/29 00:14:27;;;;;;;0.60;0.60;;;4.90;99.90;;;;;;4964837;28;20774;-84
2023/03/29 00:16:53;;;;;;;0.57;0.57;;;4.90;99.90;;;;;;4946087;28;20380;-84
2023/03/29 00:19:19;;;;;;;0.50;0.50;;;4.80;99.90;;;;;;4961377;28;20039;-83
2023/03/29 00:21:45;;;;;;;0.60;0.60;;;4.80;99.90;;;;;;4963399;28;20184;-86
2023/03/29 00:24:10;;;;;;;0.50;0.50;;;4.90;99.90;;;;;;4960889;28;20039;-85
2023/03/29 00:26:36;;;;;;;0.55;0.55;;;4.80;99.90;;;;;;4958718;28;20047;-85
2023/03/29 00:29:02;;;;;;;0.65;0.65;;;4.80;99.90;;;;;;4951389;28;20051;-84
2023/03/29 00:31:27;;;;;;;0.70;0.70;;;4.80;99.90;;;;;;4949862;28;20047;-83
2023/03/29 00:33:53;;;;;;;0.57;0.57;;;4.80;99.90;;;;;;4954672;28;20076;-84
2023/03/29 00:36:20;;;;;;;0.70;0.70;;;5.20;99.90;;;;;;4964126;28;20565;-83
2023/03/29 00:38:46;;;;;;;0.70;0.70;;;4.80;99.90;;;;;;4961479;28;20412;-84
2023/03/29 00:41:12;;;;;;;0.80;0.80;;;4.90;99.90;;;;;;4944598;28;20039;-83
2023/03/29 00:43:59;;;;;;;0.60;0.60;;;4.90;99.90;;;;;;4964644;28;20054;-85
2023/03/29 00:46:26;;;;;;;0.50;0.50;;;5.00;99.90;;;;;;4971290;28;20437;-86
2023/03/29 00:48:57;;;;;;;0.60;0.60;;;5.10;99.90;;;;;;4947039;28;20152;-85
2023/03/29 00:51:26;;;;;;;0.90;0.90;;;5.20;99.90;;;;;;4958558;28;20081;-85
2023/03/29 00:53:57;;;;;;;0.73;0.73;;;4.90;99.90;;;;;;4938880;28;20469;-84
2023/03/29 00:56:35;;;;;;;0.60;0.60;;;4.90;99.90;;;;;;4961085;28;20039;-83
2023/03/29 00:59:08;;;;;;;1.20;1.13;;;4.90;99.90;;;;;;4961419;28;20035;-84
2023/03/29 01:02:04;;;;;;;0.43;0.43;;;4.90;99.90;;;;;;4960635;28;20412;-83
2023/03/29 01:05:07;;;;;;;0.60;0.60;;;4.90;99.90;;;;;;4959817;28;20047;-85
2023/03/29 01:07:56;;;;;;;0.60;0.60;;;4.90;99.90;;;;;;4971374;28;20054;-85
2023/03/29 01:10:50;;;;;;;0.40;0.40;;;5.00;99.90;;;;;;4962944;28;20041;-85
2023/03/29 01:13:37;;;;;;;0.60;0.60;;;4.90;99.90;;;;;;4945091;28;20499;-85
2023/03/29 01:16:04;;;;;;;0.45;0.45;;;4.90;99.90;;;;;;4962627;28;20479;-84
2023/03/29 01:18:32;;;;;;;0.45;0.45;;;4.90;99.90;;;;;;4961770;28;20173;-84
2023/03/29 01:21:14;;;;;;;0.50;0.50;;;4.90;99.90;;;;;;4968779;28;20433;-86
2023/03/29 01:24:05;;;;;;;0.63;0.63;;;5.10;99.90;;;;;;4965369;28;20492;-85
2023/03/29 01:26:59;;;;;;;0.60;0.60;;;5.00;99.90;;;;;;4965904;28;20498;-85
2023/03/29 01:29:33;;;;;;;0.68;0.68;;;5.00;99.90;;;;;;4963687;28;20142;-84
2023/03/29 01:32:24;;;;;;;0.40;0.40;;;5.10;99.90;;;;;;4962818;28;20063;-85
2023/03/29 01:35:11;;;;;;;1.45;1.42;;;5.00;99.90;;;;;;4964948;28;20082;-85
2023/03/29 01:37:42;;;;;;;0.57;0.57;;;5.00;99.90;;;;;;4963485;28;20476;-85
2023/03/29 01:40:08;;;;;;;3.92;2.15;;;4.80;99.90;;;;;;4971693;28;20114;-84
2023/03/29 01:42:53;;;;;;;0.57;0.57;;;5.00;99.90;;;;;;4964962;28;20043;-84
2023/03/29 01:45:48;;;;;;;0.68;0.68;;;5.00;99.90;;;;;;4962017;28;20046;-83
2023/03/29 01:48:29;;;;;;;0.52;0.52;;;5.00;99.90;;;;;;4962412;28;20073;-83
2023/03/29 01:51:23;;;;;;;0.63;0.63;;;5.00;99.90;;;;;;4962802;28;20055;-84
2023/03/29 01:54:00;;;;;;;0.50;0.50;;;5.00;99.90;;;;;;4943384;28;20438;-87
2023/03/29 01:56:28;;;;;;;0.60;0.60;;;5.00;99.90;;;;;;4949193;28;20039;-85
2023/03/29 01:59:01;;;;;;;0.40;0.40;;;5.00;99.90;;;;;;4962025;28;20104;-85
2023/03/29 02:01:31;;;;;;;1.20;1.20;;;5.60;99.90;;;;;;4963723;28;20531;-84
2023/03/29 02:04:02;;;;;;;1.23;1.13;;;5.00;99.90;;;;;;4963272;28;20459;-84
2023/03/29 02:06:30;;;;;;;0.57;0.57;;;5.00;99.90;;;;;;4961978;28;20049;-84
2023/03/29 02:08:56;;;;;;;0.75;0.75;;;5.10;99.90;;;;;;4962958;28;20039;-83
2023/03/29 02:11:23;;;;;;;;;;;5.50;99.90;;;;;;4963105;28;20051;-83
2023/03/29 02:13:50;;;;;;;0.60;0.60;;;5.00;99.90;;;;;;4950239;28;19934;-83
2023/03/29 02:16:16;;;;;;;0.70;0.70;;;5.10;99.90;;;;;;4961942;28;20392;-84
2023/03/29 02:18:46;;;;;;;0.50;0.50;;;5.00;99.90;;;;;;4960291;28;20039;-83
2023/03/29 02:21:20;;;;;;;1.85;0.60;;;5.00;99.90;;;;;;4963355;28;20049;-83
2023/03/29 02:23:48;;;;;;;0.60;0.60;;;5.00;99.90;;;;;;4964256;28;20137;-83
2023/03/29 02:26:14;;;;;;;0.60;0.60;;;5.00;99.90;;;;;;4962151;28;20108;-84
2023/03/29 02:28:41;;;;;;;0.80;0.80;;;5.00;99.90;;;;;;4959842;28;20047;-84
2023/03/29 02:31:30;;;;;;;0.70;0.70;;;5.00;99.90;;;;;;4949601;28;20045;-84
2023/03/29 02:34:19;;;;;;;0.50;0.50;;;5.00;99.90;;;;;;4964369;28;20118;-83
2023/03/29 02:36:49;;;;;;;0.68;0.68;;;5.00;99.90;;;;;;4961699;28;20069;-86
2023/03/29 02:39:17;;;;;;;0.52;0.52;;;5.00;99.90;;;;;;4958841;28;20545;-85
2023/03/29 02:41:47;;;;;;;0.70;0.70;;;5.00;99.90;;;;;;4962843;28;20333;-86
2023/03/29 02:44:23;;;;;;;0.60;0.60;;;5.00;99.90;;;;;;4963638;28;20066;-84
2023/03/29 02:47:00;;;;;;;0.60;0.60;;;5.00;99.90;;;;;;4963408;28;20046;-84
2023/03/29 02:49:25;;;;;;;;;;;5.30;99.90;;;;;;4962290;28;20474;-85
2023/03/29 02:51:55;;;;;;;0.65;0.65;;;5.10;99.90;;;;;;4943238;28;20326;-85
2023/03/29 02:54:24;;;;;;;0.70;0.70;;;5.00;99.90;;;;;;4963515;28;20095;-84
2023/03/29 02:57:05;;;;;;;0.50;0.50;;;5.00;99.90;;;;;;4961915;28;20114;-85
2023/03/29 02:59:32;;;;;;;1.50;1.40;;;5.00;99.90;;;;;;4963958;28;20039;-86
2023/03/29 03:01:58;;;;;;;0.65;0.65;;;5.10;99.90;;;;;;4963543;28;20046;-86
2023/03/29 03:04:25;;;;;;;0.95;0.95;;;5.10;99.90;;;;;;4960029;28;20497;-86
2023/03/29 03:06:51;;;;;;;0.50;0.50;;;5.10;99.90;;;;;;4961076;28;20080;-85
2023/03/29 03:09:17;;;;;;;0.68;0.68;;;5.10;99.90;;;;;;4964468;28;20444;-86
2023/03/29 03:11:42;;;;;;;;;;;5.10;99.90;;;;;;4946765;28;20131;-85
2023/03/29 03:14:09;;;;;;;0.80;0.80;;;5.40;99.90;;;;;;4964176;28;20037;-86
2023/03/29 03:16:35;;;;;;;;;;;5.10;99.90;;;;;;4946607;28;20538;-84
2023/03/29 03:19:00;;;;;;;0.50;0.50;;;5.10;99.90;;;;;;4945981;28;19926;-85
2023/03/29 03:21:29;;;;;;;0.80;0.80;;;5.10;99.90;;;;;;4962842;28;20100;-85
2023/03/29 03:23:54;;;;;;;0.60;0.60;;;5.10;99.90;;;;;;4963920;28;20578;-84
2023/03/29 03:26:21;;;;;;;0.73;0.73;;;5.10;99.90;;;;;;4960383;28;20070;-84
2023/03/29 03:28:47;;;;;;;0.50;0.50;;;5.10;99.90;;;;;;4961182;28;20038;-83
2023/03/29 03:31:13;;;;;;;0.60;0.60;;;5.20;99.90;;;;;;4960608;28;20063;-84
2023/03/29 03:33:39;;;;;;;;;;;5.10;99.90;;;;;;4961303;28;20046;-84
2023/03/29 03:36:07;;;;;;;0.50;0.50;;;5.10;99.90;;;;;;4962969;28;19922;-84
2023/03/29 03:38:34;;;;;;;0.60;0.60;;;5.10;99.90;;;;;;4945902;28;20034;-85
2023/03/29 03:41:00;;;;;;;0.50;0.50;;;5.10;99.90;;;;;;4956439;28;20053;-85
2023/03/29 03:43:27;;;;;;;0.50;0.50;;;5.10;99.90;;;;;;4962817;28;20396;-85
2023/03/29 03:45:53;;;;;;;0.60;0.60;;;5.10;99.90;;;;;;4958874;28;20126;-85
2023/03/29 03:48:19;;;;;;;0.60;0.60;;;5.20;99.90;;;;;;4962946;28;20760;-85
2023/03/29 03:50:53;;;;;;;0.77;0.77;;;5.10;99.90;;;;;;4963524;28;20050;-86
2023/03/29 03:53:20;;;;;;;0.60;0.60;;;5.30;99.90;;;;;;4959693;28;20081;-83
2023/03/29 03:55:54;;;;;;;0.60;0.60;;;5.10;99.90;;;;;;4957058;28;20741;-86
2023/03/29 03:58:21;;;;;;;0.55;0.55;;;5.60;99.90;;;;;;4955796;28;20051;-83
2023/03/29 04:00:47;;;;;;;0.60;0.60;;;5.70;99.90;;;;;;4945284;28;20041;-83
2023/03/29 04:03:14;;;;;;;0.77;0.77;;;5.10;99.90;;;;;;4962283;28;20419;-84
2023/03/29 04:05:40;;;;;;;0.65;0.65;;;5.30;99.90;;;;;;4946723;28;20112;-85
2023/03/29 04:08:07;;;;;;;0.93;0.93;;;5.20;99.90;;;;;;4958568;28;20396;-85
2023/03/29 04:10:34;;;;;;;0.60;0.60;;;5.20;99.90;;;;;;4939644;28;20038;-85
2023/03/29 04:13:03;;;;;;;0.60;0.60;;;5.20;99.90;;;;;;4946429;28;20464;-86
2023/03/29 04:15:30;;;;;;;0.57;0.57;;;5.20;99.90;;;;;;4962083;28;20047;-85
2023/03/29 04:17:57;;;;;;;1.10;1.00;;;5.20;99.90;;;;;;4960085;28;20047;-87
2023/03/29 04:20:24;;;;;;;0.82;0.82;;;5.20;99.90;;;;;;4962636;28;20448;-85
2023/03/29 04:22:50;;;;;;;;;;;5.20;99.90;;;;;;4963207;28;20044;-85
2023/03/29 04:25:16;;;;;;;0.80;0.80;;;5.40;99.90;;;;;;4930973;28;20305;-85
2023/03/29 04:27:42;;;;;;;0.70;0.70;;;5.20;99.90;;;;;;4959992;28;20066;-85
2023/03/29 04:30:08;;;;;;;;;;;5.30;99.90;;;;;;4964407;28;20100;-87
2023/03/29 04:32:34;;;;;;;0.60;0.60;;;5.20;99.90;;;;;;4984260;28;19968;-85
2023/03/29 04:35:01;;;;;;;0.60;0.60;;;5.20;99.90;;;;;;4948540;28;20047;-86
2023/03/29 04:37:28;;;;;;;0.63;0.63;;;5.20;99.90;;;;;;4960759;28;20034;-84
2023/03/29 04:39:54;;;;;;;1.23;1.17;;;5.20;99.90;;;;;;4958053;28;20046;-84
2023/03/29 04:42:20;;;;;;;0.70;0.70;;;5.20;99.90;;;;;;4941904;28;20448;-85
2023/03/29 04:44:45;;;;;;;0.75;0.75;;;5.30;99.90;;;;;;4964745;28;20118;-84
2023/03/29 04:47:14;;;;;;;0.50;0.50;;;5.30;99.90;;;;;;4967842;28;20514;-83
2023/03/29 04:49:40;;;;;;;0.60;0.60;;;5.30;99.90;;;;;;4961262;28;20122;-85
2023/03/29 04:52:07;;;;;;;0.57;0.57;;;5.30;99.90;;;;;;4948983;28;20133;-85
2023/03/29 04:54:33;;;;;;;0.73;0.73;;;5.30;99.90;;;;;;4964872;28;20043;-85
2023/03/29 04:56:59;;;;;;;0.82;0.82;;;5.80;99.90;;;;;;4943532;28;20039;-85
2023/03/29 04:59:25;;;;;;;0.60;0.60;;;5.40;99.90;;;;;;4966535;28;20483;-85
2023/03/29 05:01:51;;;;;;;1.90;1.73;;;5.80;99.90;;;;;;4963740;28;20414;-84
2023/03/29 05:04:17;;;;;;;0.60;0.60;;;5.40;99.90;;;;;;4930982;28;20046;-85
2023/03/29 05:06:42;;;;;;;0.75;0.65;;;5.40;99.90;;;;;;5028056;28;20527;-85
2023/03/29 05:09:09;;;;;;;0.73;0.73;;;5.40;99.90;;;;;;4966228;28;20078;-85
2023/03/29 05:11:35;;;;;;;0.57;0.57;;;5.40;99.90;;;;;;4963888;28;20083;-84
2023/03/29 05:14:02;;;;;;;0.73;0.73;;;5.50;99.90;;;;;;4959247;28;20051;-85
2023/03/29 05:16:31;;;;;;;0.50;0.50;;;5.40;99.90;;;;;;4965032;28;20434;-85
2023/03/29 05:18:57;;;;;;;0.50;0.50;;;5.40;99.90;;;;;;4975288;28;20129;-85
2023/03/29 05:21:24;;;;;;;;;;;5.40;99.90;;;;;;4962850;28;20148;-85
2023/03/29 05:23:50;;;;;;;;;;;5.40;99.90;;;;;;4947430;28;19926;-85
2023/03/29 05:26:16;;;;;;;0.60;0.60;;;5.40;99.90;;;;;;4961530;28;19934;-85
2023/03/29 05:28:42;;;;;;;0.60;0.60;;;5.50;99.90;;;;;;4966824;28;20049;-84
2023/03/29 05:31:08;;;;;;;;;;;5.50;99.90;;;;;;4966173;28;20059;-84
2023/03/29 05:33:35;;;;;;;0.63;0.63;;;5.50;99.90;;;;;;4960228;28;19926;-85
2023/03/29 05:36:06;;;;;;;0.93;0.93;;;5.50;99.90;;;;;;4948996;29;20046;-84
2023/03/29 05:38:31;;;;;;;0.60;0.60;;;5.50;99.90;;;;;;4965660;28;20039;-85
2023/03/29 05:40:58;;;;;;;0.60;0.60;;;5.50;99.90;;;;;;4963125;28;20453;-85
2023/03/29 05:43:24;;;;;;;0.50;0.50;;;5.50;99.90;;;;;;4963876;28;20046;-85
2023/03/29 05:45:54;;;;;;;0.63;0.63;;;5.60;99.90;;;;;;4950408;28;20047;-83
2023/03/29 05:48:23;;;;;;;0.38;0.38;;;5.60;99.90;;;;;;4946540;28;20408;-83
2023/03/29 05:50:51;;;;;;;0.50;0.50;;;5.60;99.90;;;;;;4971127;28;20053;-82
2023/03/29 05:53:17;;;;;;;5.57;3.17;;;5.60;99.90;;;;;;4958088;28;20122;-82
2023/03/29 05:55:43;;;;;;;0.60;0.60;;;5.60;99.90;;;;;;4954573;28;20043;-80
2023/03/29 05:58:11;;;;;;;;;;;5.60;99.90;;;;;;4975872;28;20038;-80
2023/03/29 06:00:38;;;;;;;0.50;0.50;;;5.60;99.90;;;;;;4953182;28;19918;-82
2023/03/29 06:03:06;;;;;;;0.40;0.40;;;5.60;99.90;;;;;;4967292;28;20446;-83
2023/03/29 06:05:35;;;;;;;0.57;0.57;;;5.60;99.90;;;;;;4981103;28;20053;-82
2023/03/29 06:08:02;;;;;;;0.50;0.50;;;5.80;99.90;;;;;;4964249;28;20043;-81
2023/03/29 06:10:28;;;;;;;0.32;0.32;;;5.70;99.90;;;;;;4961529;28;20046;-81
2023/03/29 06:12:54;;;;;;;;;;;5.70;99.90;;;;;;4935183;28;20043;-81
2023/03/29 06:15:21;;;;;;;1.45;0.70;;;5.70;99.90;;;;;;4952907;28;19922;-82
2023/03/29 06:17:46;;;;;;;0.57;0.57;;;5.70;99.90;;;;;;4965371;28;20082;-83
2023/03/29 06:20:13;;;;;;;0.60;0.60;;;5.70;99.90;;;;;;4965311;28;20497;-81
2023/03/29 06:22:40;;;;;;;0.50;0.50;;;5.70;99.90;;;;;;4947731;28;20101;-82
2023/03/29 06:25:08;;;;;;;1.88;1.77;;;5.80;99.90;;;;;;4961004;28;20130;-81
2023/03/29 06:27:35;;;;;;;0.52;0.52;;;5.80;99.90;;;;;;4933809;28;20058;-81
2023/03/29 06:30:01;;;;;;;0.40;0.40;;;5.80;99.90;;;;;;4948812;28;20070;-81
2023/03/29 06:32:27;;;;;;;1.73;1.70;;;5.90;99.90;;;;;;4950338;28;20046;-81
2023/03/29 06:34:53;;;;;;;1.50;1.40;;;5.80;99.90;;;;;;4950157;28;20140;-83
2023/03/29 06:37:20;;;;;;;0.60;0.60;;;5.90;99.90;;;;;;4944918;28;20079;-82
2023/03/29 06:39:51;;;;;;;0.50;0.50;;;5.90;99.90;;;;;;4963386;28;20047;-81
2023/03/29 06:42:23;;;;;;;0.50;0.50;;;5.90;99.90;;;;;;4958609;28;20057;-80
2023/03/29 06:44:50;;;;;;;0.50;0.50;;;5.90;99.90;;;;;;4946378;28;20050;-81
2023/03/29 06:47:16;;;;;;;1.23;1.23;;;6.00;99.90;;;;;;5028044;28;20038;-82
2023/03/29 06:49:42;;;;;;;0.60;0.60;;;6.00;99.90;;;;;;4950793;28;20058;-81
2023/03/29 06:52:08;;;;;;;;;;;6.00;99.90;;;;;;4966364;28;20070;-81
2023/03/29 06:54:34;;;;;;;0.52;0.52;;;6.20;99.90;;;;;;4949807;28;19969;-81
2023/03/29 06:57:00;;;;;;;1.02;1.00;;;6.00;99.90;;;;;;4935121;28;20134;-81
2023/03/29 06:59:25;;;;;;;;;;;6.10;99.90;;;;;;4965725;28;20050;-80
2023/03/29 07:01:53;;;;;;;0.68;0.68;;;6.10;99.90;;;;;;4977830;28;20402;-81
2023/03/29 07:04:21;;;;;;;1.08;1.08;;;6.20;99.90;;;;;;4966289;28;20046;-82
2023/03/29 07:06:50;;;;;;;0.90;0.90;;;6.30;99.90;;;;;;4974504;28;20035;-81
2023/03/29 07:09:18;;;;;;;0.98;0.88;;;6.30;99.90;;;;;;4952472;28;20049;-81
2023/03/29 07:11:45;;;;;;;0.57;0.57;;;6.40;99.90;;;;;;4972632;28;20047;-80
2023/03/29 07:14:11;;;;;;;1.40;1.30;;;6.50;99.90;;;;;;4964878;28;20465;-80
2023/03/29 07:16:37;;;;;;;0.55;0.55;;;6.60;99.90;;;;;;4965296;28;20130;-81
2023/03/29 07:19:04;;;;;;;1.02;1.02;;;6.60;99.90;;;;;;4928540;28;20085;-80
2023/03/29 07:21:33;;;;;;;2.03;1.92;;;6.70;99.90;;;;;;4967166;28;20112;-80
2023/03/29 07:23:59;;;;;;;0.50;0.50;;;6.70;99.90;;;;;;4949905;28;20058;-82
2023/03/29 07:26:24;;;;;;;0.55;0.55;;;6.80;99.90;;;;;;4962681;28;20042;-81
2023/03/29 07:28:50;;;;;;;2.33;2.15;;;7.00;99.90;;;;;;4965120;28;20046;-82
2023/03/29 07:31:16;;;;;;;0.50;0.50;;;7.20;99.90;;;;;;4961671;28;20621;-82
2023/03/29 07:33:43;;;;;;;2.58;1.80;;;7.30;99.90;;;;;;4930097;28;20439;-81
2023/03/29 07:36:09;;;;;;;0.60;0.60;;;7.30;99.90;;;;;;4956434;28;20042;-83
2023/03/29 07:38:36;;;;;;;0.88;0.88;;;7.20;99.90;;;;;;4953210;28;20054;-81
2023/03/29 07:41:05;;;;;;;0.88;0.77;;;7.20;99.90;;;;;;4950946;28;20047;-82
2023/03/29 07:43:31;;;;;;;0.50;0.50;;;7.10;99.90;;;;;;4925699;28;20463;-80
2023/03/29 07:46:05;;;;;;;0.50;0.50;;;7.20;99.90;;;;;;4957368;28;20130;-82
2023/03/29 07:48:32;;;;;;;0.52;0.52;;;7.10;99.90;;;;;;4937162;28;20054;-82
2023/03/29 07:50:58;;;;;;;0.90;0.90;;;7.20;99.90;;;;;;4950271;28;20046;-81
2023/03/29 07:53:25;;;;;;;0.80;0.80;;;7.20;99.90;;;;;;4931387;28;20036;-82
2023/03/29 07:55:53;;;;;;;0.50;0.50;;;7.20;99.90;;;;;;4959511;28;20047;-81
2023/03/29 07:58:22;;;;;;;0.50;0.50;;;7.20;99.90;;;;;;4933972;28;20583;-80
2023/03/29 08:00:48;;;;;;;0.57;0.57;;;7.20;99.90;;;;;;4933924;28;20194;-82
2023/03/29 08:03:15;;;;;;;0.75;0.75;;;7.30;99.90;;;;;;4933786;28;20132;-82
2023/03/29 08:05:42;;;;;;;0.65;0.65;;;7.40;99.90;;;;;;4944874;28;20473;-82
2023/03/29 08:08:08;;;;;;;;;;;7.50;99.90;;;;;;4946871;28;20081;-82
2023/03/29 08:10:36;;;;;;;0.50;0.50;;;7.60;99.90;;;;;;4965422;28;19926;-83
2023/03/29 08:13:06;;;;;;;0.50;0.50;;;7.70;99.90;;;;;;4956846;28;20142;-81
2023/03/29 08:15:33;;;;;;;0.60;0.60;;;7.90;99.90;;;;;;4947237;28;20038;-82
2023/03/29 08:17:59;;;;;;;0.68;0.68;;;8.00;99.90;;;;;;4962452;28;20126;-81
2023/03/29 08:20:25;;;;;;;0.80;0.80;;;8.00;99.90;;;;;;4949252;28;20125;-81
2023/03/29 08:22:50;;;;;;;0.93;0.93;;;8.10;99.90;;;;;;5016442;28;20049;-81
2023/03/29 08:25:17;;;;;;;0.40;0.40;;;8.10;99.90;;;;;;4968865;28;20038;-81
2023/03/29 08:27:49;;;;;;;0.57;0.57;;;8.10;99.90;;;;;;4936847;28;20091;-81
2023/03/29 08:30:16;;;;;;;0.70;0.70;;;8.10;99.90;;;;;;4948833;28;20083;-82
2023/03/29 08:32:43;;;;;;;0.50;0.50;;;8.10;99.90;;;;;;4968136;28;20053;-82
2023/03/29 08:35:09;;;;;;;0.95;0.77;;;8.20;99.90;;;;;;4965338;28;20096;-82
2023/03/29 08:37:38;;;;;;;0.63;0.63;;;8.40;99.90;;;;;;4969345;28;20146;-82
2023/03/29 08:40:05;;;;;;;0.50;0.50;;;8.50;99.90;;;;;;4952435;28;20117;-82
2023/03/29 08:42:49;;;;;;;0.68;0.68;;;8.50;99.90;;;;;;4962485;28;20043;-81
2023/03/29 08:45:47;;;;;;;0.30;0.30;;;8.50;99.90;;;;;;4968221;28;20396;-82
2023/03/29 08:48:27;;;;;;;0.50;0.50;;;8.50;99.90;;;;;;4976744;28;20047;-82
2023/03/29 08:50:58;;;;;;;0.50;0.50;;;8.50;99.90;;;;;;4954886;28;20051;-82
2023/03/29 08:53:43;;;;;;;0.77;0.65;;;8.50;99.90;;;;;;4950616;28;20047;-82
2023/03/29 08:56:17;;;;;;;2.22;1.50;;;8.70;99.90;;;;;;4963863;28;20046;-82
2023/03/29 08:58:45;;;;;;;0.75;0.75;;;8.80;99.90;;;;;;4980234;28;20120;-81
2023/03/29 09:01:11;;;;;;;0.40;0.40;;;9.00;99.90;;;;;;4949985;28;20051;-82
2023/03/29 09:03:47;;;;;;;0.45;0.45;;;9.10;99.90;;;;;;4964519;28;20419;-83
2023/03/29 09:06:14;;;;;;;0.50;0.50;;;9.10;99.90;;;;;;4949739;28;20093;-82
2023/03/29 09:08:46;;;;;;;0.43;0.43;;;9.10;99.90;;;;;;5037524;28;20478;-82
2023/03/29 09:11:18;;;;;;;1.77;1.67;;;9.10;99.90;;;;;;4946005;28;20039;-82
2023/03/29 09:13:56;;;;;;;0.38;0.38;;;9.30;99.90;;;;;;4966204;28;20074;-82
2023/03/29 09:16:48;;;;;;;2.72;1.20;;;9.40;99.90;;;;;;4947770;28;20038;-82
2023/03/29 09:19:42;;;;;;;2.25;2.15;;;9.50;99.90;;;;;;4986869;28;20047;-81
2023/03/29 09:22:29;;;;;;;1.63;1.55;;;9.60;99.90;;;;;;4945616;28;20114;-82
2023/03/29 09:25:14;;;;;;;3.30;2.00;;;9.60;99.90;;;;;;4965818;28;20034;-82
2023/03/29 09:28:03;;;;;;;1.05;1.00;;;9.60;99.90;;;;;;4972073;28;20069;-82
2023/03/29 09:30:52;;;;;;;2.55;1.05;;;9.70;99.90;;;;;;4964468;28;20062;-81
2023/03/29 09:33:41;;;;;;;0.60;0.47;;;9.90;99.90;;;;;;4968582;28;20593;-81
2023/03/29 09:36:29;;;;;;;0.57;0.57;;;9.90;99.90;;;;;;4959760;28;20047;-82
2023/03/29 09:38:55;;;;;;;0.65;0.65;;;10.00;99.90;;;;;;4950617;28;20046;-82
2023/03/29 09:42:03;;;;;;;0.90;0.90;;;9.90;99.90;;;;;;4948562;28;20042;-82
2023/03/29 09:45:07;;;;;;;2.57;0.50;;;10.00;99.90;;;;;;4985217;28;20054;-81
2023/03/29 09:47:59;;;;;;;1.27;1.10;;;10.10;99.90;;;;;;4948949;28;20047;-82
2023/03/29 09:50:50;;;;;;;1.20;1.20;;;10.30;99.90;;;;;;4953275;28;20042;-82
2023/03/29 09:53:18;;;;;;;0.35;0.35;;;10.40;99.90;;;;;;4948154;28;20047;-81
2023/03/29 09:55:48;;;;;;;0.85;0.85;;;10.50;99.90;;;;;;4935534;28;20403;-82
2023/03/29 09:58:26;;;;;;;1.35;1.25;;;10.50;99.90;;;;;;4962496;28;20039;-82
2023/03/29 10:00:58;;;;;;;2.05;1.85;;;10.40;99.90;;;;;;4948839;28;20038;-82
2023/03/29 10:03:32;;;;;;;0.68;0.68;;;10.40;99.90;;;;;;4952460;28;20042;-82
2023/03/29 10:06:01;;;;;;;0.82;0.82;;;10.30;99.90;;;;;;4919566;28;20159;-81
2023/03/29 10:08:39;;;;;;;0.45;0.45;;;10.30;99.90;;;;;;4963678;28;20374;-82
2023/03/29 10:11:13;;;;;;;2.53;2.33;;;10.40;99.90;;;;;;4945563;28;20035;-82
2023/03/29 10:13:48;;;;;;;0.90;0.90;;;10.40;99.90;;;;;;4965679;28;20070;-82
2023/03/29 10:16:21;;;;;;;0.47;0.47;;;10.50;99.90;;;;;;4947921;28;20035;-82
2023/03/29 10:18:49;;;;;;;0.85;0.85;;;10.60;99.90;;;;;;4960040;28;20132;-81
2023/03/29 10:21:16;;;;;;;0.45;0.45;;;10.70;99.90;;;;;;4965621;28;20488;-82
2023/03/29 10:23:43;;;;;;;0.63;0.63;;;10.70;99.90;;;;;;4965647;28;20183;-82
2023/03/29 10:26:31;;;;;;;0.75;0.75;;;10.80;99.90;;;;;;4967873;28;20523;-82
2023/03/29 10:29:00;;;;;;;0.75;0.68;;;10.90;99.90;;;;;;4970829;28;20454;-82
2023/03/29 10:31:36;;;;;;;1.27;1.17;;;10.90;99.90;;;;;;4936841;28;20532;-81
2023/03/29 10:34:05;;;;;;;0.77;0.77;;;10.80;99.90;;;;;;4948378;28;20046;-83
2023/03/29 10:36:31;;;;;;;1.42;1.42;;;10.80;99.90;;;;;;4949977;28;20050;-81
2023/03/29 10:38:59;;;;;;;1.65;1.55;;;10.80;99.90;;;;;;4965863;28;20126;-82
2023/03/29 10:41:28;;;;;;;0.68;0.68;;;10.80;99.90;;;;;;4951131;28;20045;-82
2023/03/29 10:43:54;;;;;;;0.85;0.85;;;10.70;99.90;;;;;;4967178;28;20039;-82
2023/03/29 10:46:24;;;;;;;0.73;0.73;;;10.80;99.90;;;;;;4953827;28;20125;-82
2023/03/29 10:48:59;;;;;;;0.70;0.70;;;11.00;99.90;;;;;;4951540;28;20046;-82
2023/03/29 10:51:29;;;;;;;1.15;1.15;;;11.10;99.90;;;;;;4966018;28;20050;-81
2023/03/29 10:53:57;;;;;;;1.35;1.30;;;11.20;99.90;;;;;;4966323;28;20050;-81
2023/03/29 10:56:47;;;;;;;0.65;0.65;;;11.30;99.90;;;;;;4949854;28;20054;-81
2023/03/29 10:59:44;;;;;;;1.45;0.90;;;11.40;99.90;;;;;;4943500;28;20039;-82
2023/03/29 11:02:12;;;;;;;1.05;0.95;;;11.50;99.90;;;;;;4972278;28;20047;-81
2023/03/29 11:05:00;;;;;;;1.00;0.82;;;11.50;99.90;;;;;;4964467;28;20393;-81
2023/03/29 11:08:01;;;;;;;2.17;1.80;;;11.60;99.90;;;;;;5119551;27;1352767;-81
2023/03/29 11:10:44;;;;;;;4.63;1.60;;;11.80;99.90;;;;;;5122158;27;20607;-81
2023/03/29 11:13:29;;;;;;;0.80;0.73;;;11.90;99.90;;;;;;5097999;27;20145;-81
2023/03/29 11:16:38;;;;;;;2.00;1.80;;;12.10;99.90;;;;;;5120199;27;20039;-81
2023/03/29 11:19:26;;;;;;;0.95;0.95;;;12.40;99.90;;;;;;5113726;27;20040;-80
2023/03/29 11:22:08;;;;;;;1.23;0.40;;;12.70;99.90;;;;;;5097611;27;20773;-82
2023/03/29 11:25:07;;;;;;;1.10;1.08;;;13.00;99.90;;;;;;5073584;28;20066;-82
2023/03/29 11:27:45;;;;;;;1.45;0.85;;;13.20;99.90;;;;;;5121894;27;20077;-81
2023/03/29 11:30:28;;;;;;;1.92;1.17;;;13.40;99.90;;;;;;5104715;28;20399;-81
2023/03/29 11:32:58;;;;;;;1.08;0.98;;;13.20;99.90;;;;;;5101110;28;20039;-81
2023/03/29 11:35:36;;;;;;;0.70;0.70;;;13.20;99.90;;;;;;5107372;28;20074;-81
2023/03/29 11:38:40;;;;;;;0.77;0.77;;;13.10;99.90;;;;;;5089824;28;20031;-81
2023/03/29 11:41:26;;;;;;;1.65;1.40;;;13.20;99.90;;;;;;5108715;27;20049;-82
2023/03/29 11:43:57;;;;;;;2.80;1.67;;;13.40;99.90;;;;;;5089842;28;20108;-82
2023/03/29 11:46:29;;;;;;;0.80;0.80;;;13.30;99.90;;;;;;5103623;27;20488;-81
2023/03/29 11:49:03;;;;;;;0.30;0.30;;;13.20;99.90;;;;;;5087940;28;20877;-81
2023/03/29 11:51:43;;;;;;;1.85;1.75;;;13.10;99.90;;;;;;5110789;27;20042;-81
2023/03/29 11:54:12;;;;;;;1.40;1.30;;;13.10;99.90;;;;;;5098232;28;20380;-82
2023/03/29 11:56:48;;;;;;;1.30;1.15;;;13.10;99.90;;;;;;5084978;28;20050;-81
2023/03/29 11:59:44;;;;;;;1.70;1.60;;;13.20;99.90;;;;;;5081585;28;20050;-82
2023/03/29 12:02:15;;;;;;;0.70;0.70;;;13.20;99.90;;;;;;5107068;28;20065;-82
2023/03/29 12:04:47;;;;;;;1.15;1.02;;;13.20;99.90;;;;;;5105667;27;20544;-82
2023/03/29 12:07:31;;;;;;;1.52;1.42;;;13.30;99.90;;;;;;5111964;28;20043;-82
2023/03/29 12:10:05;;;;;;;0.77;0.75;;;13.50;99.90;;;;;;5082450;27;20062;-81
2023/03/29 12:13:04;;;;;;;0.50;0.50;;;13.60;99.90;;;;;;5097413;27;20114;-80
2023/03/29 12:15:36;;;;;;;1.20;0.85;;;13.60;99.90;;;;;;5113283;27;20043;-83
2023/03/29 12:18:14;;;;;;;0.90;0.90;;;13.60;99.90;;;;;;5102751;28;20043;-81
2023/03/29 12:20:40;;;;;;;0.75;0.75;;;13.80;99.90;;;;;;5099559;27;20140;-81
2023/03/29 12:23:07;;;;;;;;;;;13.90;99.90;;;;;;5097428;27;20055;-81
2023/03/29 12:25:47;;;;;;;1.97;1.83;;;14.10;99.90;;;;;;5071697;28;19919;-82
2023/03/29 12:28:25;;;;;;;1.05;0.95;;;14.20;99.90;;;;;;5100988;27;20039;-81
2023/03/29 12:31:03;;;;;;;1.23;1.20;;;14.30;99.90;;;;;;5096584;27;20396;-81
2023/03/29 12:34:04;;;;;;;3.22;1.45;;;14.40;99.90;;;;;;5087520;28;20049;-82
2023/03/29 12:36:47;;;;;;;2.35;0.98;;;14.30;99.90;;;;;;5094935;27;20130;-82
2023/03/29 12:39:20;;;;;;;1.50;0.70;;;14.30;99.90;;;;;;5081387;28;20096;-83
2023/03/29 12:41:52;;;;;;;1.00;0.75;;;14.30;99.90;;;;;;5085871;28;20047;-81
2023/03/29 12:44:22;;;;;;;1.45;1.42;;;14.20;99.90;;;;;;5081658;27;20046;-81
2023/03/29 12:46:54;;;;;;;1.15;1.15;;;14.30;99.90;;;;;;5115195;27;20084;-81
2023/03/29 12:49:36;;;;;;;0.40;0.40;;;14.40;99.90;;;;;;5099897;27;20067;-82
2023/03/29 12:52:20;;;;;;;2.10;1.85;;;14.40;99.90;;;;;;5094182;27;20118;-81
2023/03/29 12:54:55;;;;;;;2.80;1.70;;;14.40;99.90;;;;;;5085090;27;20467;-81
2023/03/29 12:57:26;;;;;;;0.93;0.93;;;14.40;99.90;;;;;;5091126;28;20046;-81
2023/03/29 12:59:52;;;;;;;2.42;1.55;;;14.50;99.90;;;;;;5080251;27;20055;-81
2023/03/29 13:02:18;;;;;;;1.17;1.17;;;14.50;99.90;;;;;;5078870;27;20636;-81
2023/03/29 13:04:59;;;;;;;1.77;1.33;;;14.40;99.90;;;;;;5075431;28;20494;-82
2023/03/29 13:07:27;;;;;;;3.78;2.55;;;14.20;99.90;;;;;;5099201;27;20374;-82
2023/03/29 13:10:27;;;;;;;0.45;0.45;;;14.00;99.90;;;;;;5098773;27;20043;-82
2023/03/29 13:12:54;;;;;;;1.42;1.00;;;13.80;99.90;;;;;;5089650;28;20439;-82
2023/03/29 13:15:24;;;;;;;0.73;0.73;;;13.70;99.90;;;;;;5100129;28;20063;-82
2023/03/29 13:18:35;;;;;;;1.25;1.15;;;13.80;99.90;;;;;;5090094;27;20043;-81
2023/03/29 13:21:06;;;;;;;0.32;0.32;;;13.80;99.90;;;;;;5095282;27;20051;-81
2023/03/29 13:23:44;;;;;;;1.00;1.00;;;13.80;99.90;;;;;;5111962;27;20143;-81
2023/03/29 13:26:30;;;;;;;0.40;0.40;;;13.80;99.90;;;;;;5083489;28;20044;-81